Time;durP1;ratioP1;P1;durP2;ratioP2;P2;SDS_P1;SDS_P2;PMS_P1;PMS_P2;Temp;Humidity;BMP_temperature;BMP_pressure;BME280_temperature;BME280_humidity;BME280_pressure;Samples;Min_cycle;Max_cycle;Signal;HPM_P1;HPM_P2
2022/05/09 00:01:39;;;;;;;;;;;;;;;8.92;65.10;95654.69;4974565;28;1104;-49
2022/05/09 00:04:05;;;;;;;;;;;;;;;8.78;65.35;95655.91;4974826;28;1021;-49
2022/05/09 00:06:31;;;;;;;;;;;;;;;8.64;65.88;95661.63;4974746;28;967;-50
2022/05/09 00:08:58;;;;;;;;;;;;;;;8.75;65.71;95649.03;4974493;28;1025;-50
2022/05/09 00:11:24;;;;;;;;;;;;;;;8.86;65.12;95656.06;4974552;28;1033;-50
2022/05/09 00:13:50;;;;;;;;;;;;;;;8.98;64.91;95654.13;4974638;28;1053;-49
2022/05/09 00:16:16;;;;;;;;;;;;;;;8.89;64.99;95650.44;4974758;28;996;-49
2022/05/09 00:18:42;;;;;;;;;;;;;;;9.00;64.82;95654.81;4974358;28;957;-49
2022/05/09 00:21:08;;;;;;;;;;;;;;;8.95;64.87;95659.72;4974790;28;1057;-49
2022/05/09 00:23:34;;;;;;;;;;;;;;;8.86;64.61;95655.22;4974496;28;966;-49
2022/05/09 00:26:03;;;;;;;;;;;;;;;8.90;64.69;95651.31;4974377;28;1222;-49
2022/05/09 00:28:29;;;;;;;;;;;;;;;8.92;64.55;95652.84;4974056;28;1076;-50
2022/05/09 00:30:56;;;;;;;;;;;;;;;8.92;65.02;95654.69;4974579;28;1088;-50
2022/05/09 00:33:24;;;;;;;;;;;;;;;8.70;65.22;95667.25;4974432;28;1013;-50
2022/05/09 00:35:51;;;;;;;;;;;;;;;8.61;66.01;95668.06;4974714;28;1048;-50
2022/05/09 00:38:17;;;;;;;;;;;;;;;8.47;66.26;95666.63;4978234;28;1002;-50
2022/05/09 00:41:28;;;;;;;;;;;;;;;8.32;66.79;95666.13;4978267;28;1907;-50
2022/05/09 00:43:32;;;;;;;;;;;;;;;8.38;66.82;95662.94;4980587;28;1750;-50
2022/05/09 00:45:58;;;;;;;;;;;;;;;8.47;66.35;95655.97;4978311;28;974;-50
2022/05/09 00:48:24;;;;;;;;;;;;;;;8.51;66.04;95661.88;4978307;28;986;-49
2022/05/09 00:50:51;;;;;;;;;;;;;;;8.53;65.89;95658.09;4978412;28;1058;-49
2022/05/09 00:53:17;;;;;;;;;;;;;;;8.62;66.05;95667.09;4977934;28;1017;-49
2022/05/09 00:55:47;;;;;;;;;;;;;;;8.57;65.80;95658.66;4978332;28;1040;-49
2022/05/09 00:58:15;;;;;;;;;;;;;;;8.33;66.41;95664.31;4977929;28;1036;-49
2022/05/09 01:00:44;;;;;;;;;;;;;;;8.34;66.86;95656.19;4976813;28;1918;-50
2022/05/09 01:03:30;;;;;;;;;;;;;;;8.47;66.39;95658.63;4977728;28;1041;-50
2022/05/09 01:05:56;;;;;;;;;;;;;;;8.53;65.97;95662.59;4977812;28;1762;-49
2022/05/09 01:08:24;;;;;;;;;;;;;;;8.47;66.06;95666.63;4977568;28;1045;-50
2022/05/09 01:10:50;;;;;;;;;;;;;;;8.34;66.32;95660.66;4978040;28;1052;-49
2022/05/09 01:13:19;;;;;;;;;;;;;;;8.24;66.72;95657.13;4977544;28;1009;-50
2022/05/09 01:15:48;;;;;;;;;;;;;;;8.02;67.63;95659.84;4977733;28;955;-50
2022/05/09 01:18:16;;;;;;;;;;;;;;;7.95;67.51;95661.34;4977296;28;1108;-50
2022/05/09 01:20:43;;;;;;;;;;;;;;;8.01;67.46;95660.81;4977508;28;1914;-50
2022/05/09 01:23:10;;;;;;;;;;;;;;;8.18;67.11;95655.84;4977624;28;1049;-50
2022/05/09 01:25:36;;;;;;;;;;;;;;;8.16;67.07;95658.66;4977590;28;1210;-50
2022/05/09 01:28:03;;;;;;;;;;;;;;;8.06;67.25;95662.22;4977336;28;1033;-50
2022/05/09 01:30:37;;;;;;;;;;;;;;;8.07;67.63;95658.59;4977231;28;1079;-51
2022/05/09 01:33:06;;;;;;;;;;;;;;;7.96;67.07;95657.69;4977556;28;1053;-50
2022/05/09 01:35:38;;;;;;;;;;;;;;;7.95;67.65;95656.03;4977213;28;1021;-50
2022/05/09 01:38:10;;;;;;;;;;;;;;;8.02;67.35;95659.00;4977326;28;1006;-50
2022/05/09 01:40:36;;;;;;;;;;;;;;;8.02;67.22;95651.00;4977452;28;1981;-50
2022/05/09 01:43:02;;;;;;;;;;;;;;;8.03;67.47;95658.03;4977176;28;1021;-50
2022/05/09 01:45:28;;;;;;;;;;;;;;;7.94;67.18;95657.00;4976899;28;1025;-50
2022/05/09 01:50:38;;;;;;;;;;;;;;;7.52;68.55;95659.69;4977054;28;1025;-50
2022/05/09 01:53:04;;;;;;;;;;;;;;;7.56;68.85;95657.63;4977191;28;1047;-49
2022/05/09 01:55:30;;;;;;;;;;;;;;;7.38;69.10;95662.66;4976936;28;958;-50
2022/05/09 01:57:57;;;;;;;;;;;;;;;7.31;69.58;95657.03;4976982;28;1041;-50
2022/05/09 02:00:24;;;;;;;;;;;;;;;7.31;69.48;95656.19;4976524;28;2004;-49
2022/05/09 02:02:50;;;;;;;;;;;;;;;7.35;69.48;95650.47;4976905;28;1025;-50
2022/05/09 02:05:16;;;;;;;;;;;;;;;7.27;70.30;95649.44;4976656;28;1092;-50
2022/05/09 02:07:43;;;;;;;;;;;;;;;7.35;69.94;95657.63;4976980;28;1017;-50
2022/05/09 02:10:09;;;;;;;;;;;;;;;7.55;69.62;95666.56;4976629;28;1045;-50
2022/05/09 02:12:35;;;;;;;;;;;;;;;7.51;69.25;95659.81;4976739;28;951;-50
2022/05/09 02:15:01;;;;;;;;;;;;;;;7.45;69.71;95657.69;4976392;28;1884;-50
2022/05/09 02:17:29;;;;;;;;;;;;;;;7.62;69.54;95665.06;4976619;28;977;-50
2022/05/09 02:19:55;;;;;;;;;;;;;;;7.56;69.33;95662.94;4976290;28;1911;-50
2022/05/09 02:22:21;;;;;;;;;;;;;;;7.59;68.99;95660.88;4976766;28;1028;-50
2022/05/09 02:24:47;;;;;;;;;;;;;;;7.57;68.20;95662.81;4976612;28;1192;-50
2022/05/09 02:27:13;;;;;;;;;;;;;;;7.45;69.17;95668.31;4976456;28;1207;-50
2022/05/09 02:29:42;;;;;;;;;;;;;;;7.34;69.06;95667.44;4976318;28;997;-50
2022/05/09 02:32:09;;;;;;;;;;;;;;;7.02;70.18;95672.75;4976244;28;1107;-50
2022/05/09 02:34:35;;;;;;;;;;;;;;;6.90;70.89;95669.28;4976064;28;1021;-49
2022/05/09 02:37:02;;;;;;;;;;;;;;;6.96;70.58;95670.59;4976573;28;1041;-50
2022/05/09 02:39:28;;;;;;;;;;;;;;;6.89;70.71;95669.44;4975936;28;1987;-50
2022/05/09 02:41:55;;;;;;;;;;;;;;;6.94;70.56;95669.88;4976209;28;1018;-50
2022/05/09 02:44:21;;;;;;;;;;;;;;;6.67;70.96;95675.63;4975712;28;1060;-50
2022/05/09 02:46:47;;;;;;;;;;;;;;;6.62;71.33;95679.50;4976032;28;1104;-50
2022/05/09 02:49:13;;;;;;;;;;;;;;;6.70;71.22;95678.88;4974431;28;1204;-50
2022/05/09 02:51:39;;;;;;;;;;;;;;;6.65;71.33;95679.25;4974723;28;1029;-50
2022/05/09 02:54:05;;;;;;;;;;;;;;;6.48;71.79;95682.41;4975783;28;1033;-50
2022/05/09 02:56:31;;;;;;;;;;;;;;;6.52;72.03;95691.00;4976027;28;1049;-49
2022/05/09 02:58:57;;;;;;;;;;;;;;;6.55;71.85;95683.63;4975329;28;1982;-50
2022/05/09 03:01:23;;;;;;;;;;;;;;;6.79;71.40;95694.09;4975732;28;1088;-50
2022/05/09 03:06:34;;;;;;;;;;;;;;;6.64;70.82;95690.03;4975659;28;1852;-50
2022/05/09 03:09:00;;;;;;;;;;;;;;;6.72;70.79;95687.59;4975760;28;1043;-50
2022/05/09 03:11:26;;;;;;;;;;;;;;;6.74;70.42;95696.28;4975310;28;1046;-50
2022/05/09 03:13:52;;;;;;;;;;;;;;;6.70;70.02;95696.66;4975725;28;1041;-50
2022/05/09 03:16:19;;;;;;;;;;;;;;;6.63;70.59;95693.63;4975508;28;1061;-50
2022/05/09 03:18:45;;;;;;;;;;;;;;;6.63;70.55;95696.28;4975296;28;1076;-49
2022/05/09 03:21:11;;;;;;;;;;;;;;;6.51;71.02;95691.97;4975467;28;1907;-49
2022/05/09 03:23:37;;;;;;;;;;;;;;;6.56;71.03;95693.28;4975389;28;1035;-49
2022/05/09 03:26:04;;;;;;;;;;;;;;;6.52;71.10;95698.97;4975064;28;1147;-50
2022/05/09 03:28:30;;;;;;;;;;;;;;;6.43;71.53;95705.84;4975406;28;971;-50
2022/05/09 03:30:57;;;;;;;;;;;;;;;6.49;71.63;95699.19;4975184;28;1076;-50
2022/05/09 03:33:26;;;;;;;;;;;;;;;6.55;71.70;95706.69;4975291;28;975;-49
2022/05/09 03:35:53;;;;;;;;;;;;;;;6.57;71.34;95702.09;4974992;28;1029;-50
2022/05/09 03:38:20;;;;;;;;;;;;;;;6.62;71.54;95708.75;4975390;28;974;-49
2022/05/09 03:40:46;;;;;;;;;;;;;;;6.73;71.32;95715.81;4975071;28;1906;-50
2022/05/09 03:43:12;;;;;;;;;;;;;;;6.87;71.08;95720.06;4975227;28;1044;-50
2022/05/09 03:45:40;;;;;;;;;;;;;;;7.16;70.54;95719.47;4974973;28;1033;-50
2022/05/09 03:48:06;;;;;;;;;;;;;;;7.33;70.01;95716.25;4974899;28;1100;-49
2022/05/09 03:50:32;;;;;;;;;;;;;;;7.39;69.10;95728.22;4975014;28;1042;-50
2022/05/09 03:52:58;;;;;;;;;;;;;;;7.40;69.23;95722.78;4975227;28;997;-50
2022/05/09 03:55:24;;;;;;;;;;;;;;;7.45;69.38;95733.00;4974535;28;1009;-50
2022/05/09 03:57:52;;;;;;;;;;;;;;;7.61;68.48;95733.44;4974706;28;986;-49
2022/05/09 04:00:20;;;;;;;;;;;;;;;7.66;68.34;95740.19;4974495;28;1993;-49
2022/05/09 04:02:46;;;;;;;;;;;;;;;7.78;68.37;95741.84;4974975;28;969;-50
2022/05/09 04:05:16;;;;;;;;;;;;;;;7.96;68.37;95736.75;4974616;28;1010;-50
2022/05/09 04:07:43;;;;;;;;;;;;;;;8.23;68.19;95741.53;4974959;28;1034;-50
2022/05/09 04:10:10;;;;;;;;;;;;;;;8.31;68.16;95740.84;4974394;28;1088;-50
2022/05/09 04:12:36;;;;;;;;;;;;;;;8.60;67.58;95741.03;4974255;28;1076;-50
2022/05/09 04:17:47;;;;;;;;;;;;;;;9.16;66.07;95747.63;4974265;28;1113;-50
2022/05/09 04:20:13;;;;;;;;;;;;;;;9.28;66.29;95748.38;4974487;28;1907;-50
2022/05/09 04:22:40;;;;;;;;;;;;;;;9.34;66.60;95753.16;4974190;28;1041;-50
2022/05/09 04:25:06;;;;;;;;;;;;;;;9.45;66.51;95746.84;4974743;28;1033;-50
2022/05/09 04:27:33;;;;;;;;;;;;;;;9.44;66.27;95750.50;4974155;28;1211;-50
2022/05/09 04:29:59;;;;;;;;;;;;;;;9.49;66.72;95751.75;4974521;28;1034;-49
2022/05/09 04:32:25;;;;;;;;;;;;;;;9.84;65.49;95746.81;4974051;28;1200;-49
2022/05/09 04:34:51;;;;;;;;;;;;;;;10.18;65.46;95749.88;4974612;28;973;-49
2022/05/09 04:37:17;;;;;;;;;;;;;;;10.39;64.38;95752.38;4974047;28;1057;-49
2022/05/09 04:39:43;;;;;;;;;;;;;;;10.55;64.35;95749.09;4974441;28;1906;-50
2022/05/09 04:42:10;;;;;;;;;;;;;;;10.72;61.84;95740.31;4974283;28;1004;-49
2022/05/09 04:44:36;;;;;;;;;;;;;;;10.98;62.39;95761.00;4974495;28;939;-49
2022/05/09 04:47:02;;;;;;;;;;;;;;;11.31;61.97;95764.09;4974366;28;1045;-50
2022/05/09 04:49:28;;;;;;;;;;;;;;;12.00;58.58;95756.38;4974271;28;962;-50
2022/05/09 04:51:54;;;;;;;;;;;;;;;12.95;55.54;95753.78;4974015;28;1142;-50
2022/05/09 04:54:20;;;;;;;;;;;;;;;13.74;53.30;95752.56;4974385;28;976;-50
2022/05/09 04:56:46;;;;;;;;;;;;;;;14.41;51.47;95755.06;4974098;28;1066;-50
2022/05/09 04:59:12;;;;;;;;;;;;;;;14.37;51.07;95752.88;4974323;28;1914;-50
2022/05/09 05:01:39;;;;;;;;;;;;;;;14.41;50.76;95760.44;4974230;28;959;-50
2022/05/09 05:04:06;;;;;;;;;;;;;;;14.83;50.41;95756.72;4974376;28;1018;-50
2022/05/09 05:06:32;;;;;;;;;;;;;;;14.57;51.19;95769.53;4974315;28;1049;-50
2022/05/09 05:08:58;;;;;;;;;;;;;;;14.54;50.77;95757.22;4974084;28;1033;-49
2022/05/09 05:11:24;;;;;;;;;;;;;;;15.04;49.88;95763.34;4972500;28;1101;-50
2022/05/09 05:13:50;;;;;;;;;;;;;;;15.58;48.76;95773.41;4974010;28;1095;-50
2022/05/09 05:16:16;;;;;;;;;;;;;;;16.00;46.96;95769.44;4973858;28;1021;-51
2022/05/09 05:18:44;;;;;;;;;;;;;;;16.67;44.81;95759.75;4973851;28;1864;-51
2022/05/09 05:21:11;;;;;;;;;;;;;;;17.29;43.54;95766.72;4974067;28;1975;-50
2022/05/09 05:23:38;;;;;;;;;;;;;;;17.15;44.04;95766.53;4976865;28;1862;-51
2022/05/09 05:26:04;;;;;;;;;;;;;;;17.13;43.93;95765.88;4977625;28;1218;-50
2022/05/09 05:28:32;;;;;;;;;;;;;;;17.53;43.29;95762.88;4977576;28;966;-51
2022/05/09 05:31:12;;;;;;;;;;;;;;;17.89;43.15;95765.59;4977410;28;1222;-51
2022/05/09 05:33:38;;;;;;;;;;;;;;;18.28;40.80;95769.72;4977127;28;1046;-51
2022/05/09 05:36:04;;;;;;;;;;;;;;;18.34;40.70;95763.53;4976488;28;1039;-51
2022/05/09 05:38:30;;;;;;;;;;;;;;;18.58;40.50;95766.84;4977346;28;1049;-51
2022/05/09 05:40:59;;;;;;;;;;;;;;;18.64;40.92;95773.34;4977424;28;1910;-51
2022/05/09 05:43:25;;;;;;;;;;;;;;;18.90;40.19;95770.88;4977046;28;1018;-51
2022/05/09 05:45:57;;;;;;;;;;;;;;;18.93;40.01;95772.34;4977550;28;1057;-50
2022/05/09 05:48:24;;;;;;;;;;;;;;;18.38;41.06;95763.97;4976698;28;996;-51
2022/05/09 05:50:52;;;;;;;;;;;;;;;17.73;41.62;95763.91;4977113;28;1045;-51
2022/05/09 05:53:18;;;;;;;;;;;;;;;17.07;42.58;95768.47;4976795;28;1013;-51
2022/05/09 05:55:45;;;;;;;;;;;;;;;16.48;45.00;95761.97;4977220;28;978;-50
2022/05/09 05:58:11;;;;;;;;;;;;;;;16.03;46.41;95773.63;4977078;28;997;-50
2022/05/09 06:00:37;;;;;;;;;;;;;;;15.94;48.07;95770.19;4976824;28;1910;-50
2022/05/09 06:03:04;;;;;;;;;;;;;;;15.88;49.29;95763.63;4976981;28;960;-50
2022/05/09 06:05:30;;;;;;;;;;;;;;;15.73;47.57;95758.16;4976999;28;926;-50
2022/05/09 06:07:56;;;;;;;;;;;;;;;15.30;48.69;95760.38;4976863;28;958;-50
2022/05/09 06:10:23;;;;;;;;;;;;;;;15.31;48.78;95756.69;4976844;28;1034;-51
2022/05/09 06:12:49;;;;;;;;;;;;;;;15.44;49.24;95756.09;4976590;28;1033;-51
2022/05/09 06:15:25;;;;;;;;;;;;;;;15.55;48.87;95761.09;4976797;28;1005;-51
2022/05/09 06:17:51;;;;;;;;;;;;;;;15.85;50.10;95752.38;4976580;28;958;-51
2022/05/09 06:20:18;;;;;;;;;;;;;;;16.17;48.00;95759.38;4976789;28;2001;-51
2022/05/09 06:22:45;;;;;;;;;;;;;;;16.69;48.24;95749.63;4976514;28;1070;-51
2022/05/09 06:25:13;;;;;;;;;;;;;;;16.63;47.34;95747.66;4976607;28;1064;-51
2022/05/09 06:27:39;;;;;;;;;;;;;;;16.76;47.28;95748.69;4976142;28;1155;-51
2022/05/09 06:30:06;;;;;;;;;;;;;;;17.07;46.13;95749.56;4976429;28;1026;-51
2022/05/09 06:32:33;;;;;;;;;;;;;;;17.11;45.51;95750.88;4976060;28;1080;-51
2022/05/09 06:35:06;;;;;;;;;;;;;;;17.35;45.28;95753.25;4975840;28;1088;-51
2022/05/09 06:37:33;;;;;;;;;;;;;;;17.86;44.58;95747.03;4976343;28;969;-50
2022/05/09 06:40:00;;;;;;;;;;;;;;;18.10;43.58;95751.22;4976321;28;1910;-50
2022/05/09 06:42:27;;;;;;;;;;;;;;;18.11;43.58;95747.47;4975982;28;915;-50
2022/05/09 06:44:54;;;;;;;;;;;;;;;18.14;42.10;95744.41;4976298;28;1058;-50
2022/05/09 06:47:20;;;;;;;;;;;;;;;18.30;42.52;95740.56;4976137;28;917;-50
2022/05/09 06:49:46;;;;;;;;;;;;;;;18.76;42.21;95743.84;4976137;28;1009;-50
2022/05/09 06:52:12;;;;;;;;;;;;;;;18.71;40.75;95747.16;4976172;28;1114;-50
2022/05/09 06:54:38;;;;;;;;;;;;;;;18.92;40.92;95751.72;4975837;28;1062;-50
2022/05/09 06:57:05;;;;;;;;;;;;;;;19.22;38.42;95749.59;4975910;28;1028;-50
2022/05/09 06:59:31;;;;;;;;;;;;;;;19.20;38.84;95746.25;4975574;28;1911;-50
2022/05/09 07:01:57;;;;;;;;;;;;;;;19.45;39.80;95752.00;4976067;28;1041;-50
2022/05/09 07:04:23;;;;;;;;;;;;;;;19.78;39.26;95745.06;4975784;28;1034;-50
2022/05/09 07:06:49;;;;;;;;;;;;;;;19.93;38.90;95739.47;4976036;28;963;-51
2022/05/09 07:09:15;;;;;;;;;;;;;;;19.80;38.55;95741.09;4975568;28;1838;-51
2022/05/09 07:11:42;;;;;;;;;;;;;;;19.93;38.12;95734.88;4975550;28;1075;-51
2022/05/09 07:14:08;;;;;;;;;;;;;;;20.00;38.68;95735.72;4975644;28;1008;-51
2022/05/09 07:16:36;;;;;;;;;;;;;;;20.15;37.52;95745.56;4975708;28;967;-50
2022/05/09 07:19:04;;;;;;;;;;;;;;;20.18;36.85;95743.25;4975293;28;1989;-51
2022/05/09 07:21:30;;;;;;;;;;;;;;;20.07;37.65;95741.16;4975566;28;985;-51
2022/05/09 07:23:57;;;;;;;;;;;;;;;20.10;36.72;95738.03;4975347;28;1008;-51
2022/05/09 07:26:23;;;;;;;;;;;;;;;19.97;37.69;95738.84;4975147;28;1163;-51
2022/05/09 07:28:49;;;;;;;;;;;;;;;20.09;37.16;95730.94;4975231;28;1026;-51
2022/05/09 07:31:15;;;;;;;;;;;;;;;20.20;37.12;95727.59;4975134;28;1337;-51
2022/05/09 07:33:43;;;;;;;;;;;;;;;20.35;36.80;95727.41;4975178;28;1028;-51
2022/05/09 07:36:09;;;;;;;;;;;;;;;20.57;35.82;95721.78;4975534;28;1104;-51
2022/05/09 07:38:35;;;;;;;;;;;;;;;20.73;34.60;95721.34;4975033;28;1015;-51
2022/05/09 07:41:01;;;;;;;;;;;;;;;20.79;35.75;95722.41;4974871;28;2001;-51
2022/05/09 07:43:28;;;;;;;;;;;;;;;20.87;33.14;95714.03;4975176;28;951;-51
2022/05/09 07:45:55;;;;;;;;;;;;;;;21.17;34.44;95711.66;4974521;28;1046;-51
2022/05/09 07:48:21;;;;;;;;;;;;;;;21.26;34.84;95715.81;4975012;28;995;-51
2022/05/09 07:50:48;;;;;;;;;;;;;;;21.54;34.32;95717.41;4974874;28;1002;-51
2022/05/09 07:53:19;;;;;;;;;;;;;;;21.75;34.17;95710.81;4975205;28;1073;-51
2022/05/09 07:55:45;;;;;;;;;;;;;;;21.75;33.06;95702.66;4974673;28;983;-51
2022/05/09 07:58:11;;;;;;;;;;;;;;;21.96;33.90;95706.09;4974840;28;938;-51
2022/05/09 08:00:38;;;;;;;;;;;;;;;22.09;33.40;95705.19;4974668;28;1914;-51
2022/05/09 08:03:05;;;;;;;;;;;;;;;22.37;32.23;95707.53;4974761;28;1033;-51
2022/05/09 08:05:31;;;;;;;;;;;;;;;22.65;32.00;95708.97;4974472;28;1088;-51
2022/05/09 08:07:57;;;;;;;;;;;;;;;22.59;32.80;95700.66;4974725;28;1865;-51
2022/05/09 08:10:23;;;;;;;;;;;;;;;22.69;33.05;95699.28;4974317;28;1080;-51
2022/05/09 08:12:49;;;;;;;;;;;;;;;23.03;32.93;95706.13;4974851;28;1024;-51
2022/05/09 08:15:17;;;;;;;;;;;;;;;23.41;30.99;95709.69;4974475;28;1204;-51
2022/05/09 08:17:46;;;;;;;;;;;;;;;23.43;32.43;95705.69;4974379;28;1084;-51
2022/05/09 08:20:12;;;;;;;;;;;;;;;23.42;30.15;95703.19;4974441;28;1911;-51
2022/05/09 08:22:40;;;;;;;;;;;;;;;23.43;30.45;95707.56;4974556;28;1054;-51
2022/05/09 08:25:07;;;;;;;;;;;;;;;23.75;29.75;95706.31;4974508;28;1038;-51
2022/05/09 08:27:33;;;;;;;;;;;;;;;23.79;27.63;95704.00;4974303;28;1961;-50
2022/05/09 08:30:00;;;;;;;;;;;;;;;23.83;26.62;95697.00;4974565;28;1033;-50
2022/05/09 08:32:26;;;;;;;;;;;;;;;24.09;28.95;95704.00;4974218;28;1227;-50
2022/05/09 08:34:53;;;;;;;;;;;;;;;24.42;29.52;95697.19;4974338;28;1189;-50
2022/05/09 08:37:20;;;;;;;;;;;;;;;24.58;29.92;95689.38;4974349;28;1107;-50
2022/05/09 08:39:47;;;;;;;;;;;;;;;24.58;28.67;95692.13;4973969;28;1923;-50
2022/05/09 08:42:19;;;;;;;;;;;;;;;24.42;29.04;95685.41;4974580;28;1042;-50
2022/05/09 08:45:04;;;;;;;;;;;;;;;24.19;29.33;95692.50;4974385;28;1038;-50
2022/05/09 08:47:41;;;;;;;;;;;;;;;24.27;29.00;95699.53;4974079;28;1033;-50
2022/05/09 08:50:24;;;;;;;;;;;;;;;24.09;28.42;95693.06;4974079;28;1009;-51
2022/05/09 08:52:53;;;;;;;;;;;;;;;24.03;28.24;95696.72;4974548;28;984;-51
2022/05/09 08:55:23;;;;;;;;;;;;;;;23.77;28.06;95690.53;4974187;28;980;-51
2022/05/09 08:57:56;;;;;;;;;;;;;;;24.13;29.96;95690.69;4976267;28;998;-51
2022/05/09 09:00:27;;;;;;;;;;;;;;;24.10;27.92;95692.00;4977848;28;1914;-50
2022/05/09 09:03:14;;;;;;;;;;;;;;;24.12;28.53;95689.84;4978282;28;1057;-51
2022/05/09 09:05:42;;;;;;;;;;;;;;;24.04;27.75;95686.63;4967609;28;1187;-49
2022/05/09 09:08:14;;;;;;;;;;;;;;;24.46;28.90;95683.88;4978405;28;1046;-50
2022/05/09 09:10:46;;;;;;;;;;;;;;;24.52;26.63;95681.06;4977519;28;1084;-50
2022/05/09 09:13:19;;;;;;;;;;;;;;;24.38;26.70;95678.72;4977757;28;975;-50
2022/05/09 09:15:45;;;;;;;;;;;;;;;24.20;28.53;95676.94;4977619;28;1099;-50
2022/05/09 09:18:32;;;;;;;;;;;;;;;24.21;27.23;95687.63;4977568;28;1863;-51
2022/05/09 09:20:59;;;;;;;;;;;;;;;24.13;28.51;95674.28;4947800;28;1914;-51
2022/05/09 09:23:31;;;;;;;;;;;;;;;24.42;28.62;95667.13;4977437;28;1049;-51
2022/05/09 09:26:21;;;;;;;;;;;;;;;24.61;27.83;95661.59;4977320;28;1096;-50
2022/05/09 09:28:57;;;;;;;;;;;;;;;24.76;26.28;95667.41;4977467;28;1799;-50
2022/05/09 09:31:28;;;;;;;;;;;;;;;24.53;27.39;95668.25;4977202;28;1087;-51
2022/05/09 09:33:57;;;;;;;;;;;;;;;24.50;26.83;95661.28;4977353;28;1037;-50
2022/05/09 09:36:25;;;;;;;;;;;;;;;24.57;27.31;95668.56;4977187;28;1084;-50
2022/05/09 09:38:53;;;;;;;;;;;;;;;24.62;27.18;95663.25;4977467;28;1013;-50
2022/05/09 09:41:23;;;;;;;;;;;;;;;24.69;27.61;95661.22;4977308;28;1987;-50
2022/05/09 09:43:56;;;;;;;;;;;;;;;24.94;27.58;95660.97;4977424;28;1041;-50
2022/05/09 09:46:22;;;;;;;;;;;;;;;25.00;27.82;95660.00;4977032;28;1076;-51
2022/05/09 09:49:07;;;;;;;;;;;;;;;24.88;26.98;95656.47;4976915;28;920;-50
2022/05/09 09:51:43;;;;;;;;;;;;;;;24.70;27.06;95661.00;4977049;28;970;-50
2022/05/09 09:54:10;;;;;;;;;;;;;;;24.48;28.12;95647.03;4977295;28;1033;-51
2022/05/09 09:56:36;;;;;;;;;;;;;;;24.41;27.87;95645.47;4976865;28;1010;-51
2022/05/09 09:59:08;;;;;;;;;;;;;;;24.65;28.88;95646.38;4976942;28;1034;-51
2022/05/09 10:01:35;;;;;;;;;;;;;;;24.73;27.45;95644.09;4976931;28;1025;-51
2022/05/09 10:04:10;;;;;;;;;;;;;;;24.26;26.58;95644.03;4977117;28;1113;-51
2022/05/09 10:06:55;;;;;;;;;;;;;;;24.20;28.03;95641.41;4977070;28;954;-51
2022/05/09 10:09:21;;;;;;;;;;;;;;;24.45;27.38;95641.19;4975879;28;956;-50
2022/05/09 10:11:47;;;;;;;;;;;;;;;24.70;26.90;95638.25;4976741;28;1050;-50
2022/05/09 10:14:31;;;;;;;;;;;;;;;24.73;26.87;95633.16;4976700;28;1092;-50
2022/05/09 10:17:12;;;;;;;;;;;;;;;24.74;25.08;95634.84;4976539;28;1006;-50
2022/05/09 10:19:38;;;;;;;;;;;;;;;24.51;25.54;95626.59;4976680;28;1910;-50
2022/05/09 10:25:05;;;;;;;;;;;;;;;24.78;26.69;95627.00;4976636;28;1046;-50
2022/05/09 10:27:32;;;;;;;;;;;;;;;24.98;27.75;95626.59;4976686;28;1151;-50
2022/05/09 10:30:00;;;;;;;;;;;;;;;24.86;25.80;95620.31;4976420;28;1021;-50
2022/05/09 10:32:35;;;;;;;;;;;;;;;24.84;27.54;95622.47;4975939;28;1103;-50
2022/05/09 10:35:10;;;;;;;;;;;;;;;24.98;27.26;95617.56;4976403;28;1089;-51
2022/05/09 10:37:42;;;;;;;;;;;;;;;24.95;26.57;95621.63;4976013;28;1072;-50
2022/05/09 10:40:15;;;;;;;;;;;;;;;25.00;27.27;95615.41;4976148;28;1989;-50
2022/05/09 10:42:46;;;;;;;;;;;;;;;25.13;26.86;95618.72;4976181;28;996;-50
2022/05/09 10:45:14;;;;;;;;;;;;;;;25.06;26.45;95618.03;4976137;28;1048;-51
2022/05/09 10:47:44;;;;;;;;;;;;;;;25.08;26.53;95618.63;4975920;28;1053;-51
2022/05/09 10:50:14;;;;;;;;;;;;;;;25.02;26.83;95613.28;4976259;28;1108;-51
2022/05/09 10:52:46;;;;;;;;;;;;;;;24.97;27.28;95613.19;4976002;28;1024;-51
2022/05/09 10:55:18;;;;;;;;;;;;;;;25.01;27.98;95606.16;4976063;28;1021;-51
2022/05/09 10:57:47;;;;;;;;;;;;;;;25.03;27.26;95604.00;4975723;28;1068;-51
2022/05/09 11:00:19;;;;;;;;;;;;;;;25.03;26.60;95602.09;4976075;28;1994;-50
2022/05/09 11:03:06;;;;;;;;;;;;;;;24.94;25.47;95600.81;4975822;28;1119;-51
2022/05/09 11:05:50;;;;;;;;;;;;;;;24.82;26.67;95592.63;4965693;28;1503;-50
2022/05/09 11:08:35;;;;;;;;;;;;;;;24.86;25.39;95596.53;4975627;28;954;-50
2022/05/09 11:11:08;;;;;;;;;;;;;;;24.79;27.01;95592.25;4976014;28;1037;-50
2022/05/09 11:13:53;;;;;;;;;;;;;;;24.82;27.88;95591.78;4974280;28;1026;-51
2022/05/09 11:16:28;;;;;;;;;;;;;;;24.91;26.61;95591.19;4975795;28;1028;-50
2022/05/09 11:19:20;;;;;;;;;;;;;;;24.74;25.97;95591.09;4975311;28;1916;-51
2022/05/09 11:21:49;;;;;;;;;;;;;;;24.46;25.61;95578.13;4972749;28;1621;-51
2022/05/09 11:24:15;;;;;;;;;;;;;;;24.52;26.79;95573.63;4975471;28;1020;-50
2022/05/09 11:26:50;;;;;;;;;;;;;;;24.72;26.41;95568.63;4975564;28;1218;-50
2022/05/09 11:29:25;;;;;;;;;;;;;;;24.86;27.18;95571.91;4975205;28;930;-51
2022/05/09 11:32:18;;;;;;;;;;;;;;;24.92;26.40;95567.38;4975254;28;1088;-51
2022/05/09 11:34:59;;;;;;;;;;;;;;;24.92;26.54;95564.66;4972626;28;1844;-51
2022/05/09 11:37:40;;;;;;;;;;;;;;;25.09;25.63;95565.56;4975053;28;1022;-51
2022/05/09 11:40:16;;;;;;;;;;;;;;;25.14;26.25;95560.19;4975304;28;1997;-51
2022/05/09 11:45:36;;;;;;;;;;;;;;;24.96;26.68;95560.34;4974955;28;1006;-51
2022/05/09 11:48:17;;;;;;;;;;;;;;;24.94;25.83;95552.38;4974877;28;1038;-50
2022/05/09 11:50:51;;;;;;;;;;;;;;;25.06;27.56;95546.91;4975140;28;1041;-50
2022/05/09 11:53:18;;;;;;;;;;;;;;;25.14;26.56;95545.69;4974894;28;1022;-50
2022/05/09 11:55:44;;;;;;;;;;;;;;;25.24;26.88;95534.16;4975026;28;1870;-51
2022/05/09 11:58:10;;;;;;;;;;;;;;;25.25;26.08;95535.78;4974904;28;987;-51
2022/05/09 12:00:39;;;;;;;;;;;;;;;25.35;27.09;95533.25;4974878;28;1919;-50
2022/05/09 12:03:09;;;;;;;;;;;;;;;25.31;26.27;95523.88;4974841;28;1041;-50
2022/05/09 12:05:36;;;;;;;;;;;;;;;25.40;27.05;95532.53;4974893;28;997;-51
2022/05/09 12:08:02;;;;;;;;;;;;;;;25.22;24.75;95526.16;4974554;28;958;-51
2022/05/09 12:10:30;;;;;;;;;;;;;;;25.05;26.00;95517.88;4974610;28;1046;-50
2022/05/09 12:13:00;;;;;;;;;;;;;;;25.02;24.40;95517.53;4974669;28;1359;-50
2022/05/09 12:15:26;;;;;;;;;;;;;;;24.79;24.76;95512.97;4974863;28;963;-50
2022/05/09 12:18:00;;;;;;;;;;;;;;;24.64;24.87;95517.03;4974493;28;981;-50
2022/05/09 12:20:27;;;;;;;;;;;;;;;24.69;25.78;95511.69;4974562;28;1898;-49
2022/05/09 12:22:57;;;;;;;;;;;;;;;24.87;26.09;95502.50;4974320;28;1013;-50
2022/05/09 12:25:33;;;;;;;;;;;;;;;25.08;25.80;95508.34;4974288;28;1163;-50
2022/05/09 12:28:02;;;;;;;;;;;;;;;25.10;24.26;95503.50;4974612;28;973;-50
2022/05/09 12:30:46;;;;;;;;;;;;;;;25.14;25.49;95497.28;4974262;28;1867;-51
2022/05/09 12:33:31;;;;;;;;;;;;;;;25.25;25.76;95501.06;4973968;28;1053;-50
2022/05/09 12:36:00;;;;;;;;;;;;;;;25.33;25.94;95494.38;4974634;28;981;-50
2022/05/09 12:38:28;;;;;;;;;;;;;;;25.36;24.74;95493.03;4973967;28;1017;-50
2022/05/09 12:41:02;;;;;;;;;;;;;;;25.29;25.52;95490.47;4974281;28;1902;-50
2022/05/09 12:43:29;;;;;;;;;;;;;;;25.32;24.97;95489.97;4974417;28;1054;-49
2022/05/09 12:45:56;;;;;;;;;;;;;;;25.35;24.95;95480.44;4974429;28;1100;-50
2022/05/09 12:48:22;;;;;;;;;;;;;;;25.36;24.75;95479.34;4973887;28;1009;-50
2022/05/09 12:50:49;;;;;;;;;;;;;;;25.35;25.45;95478.53;4974515;28;966;-50
2022/05/09 12:53:17;;;;;;;;;;;;;;;25.32;24.68;95479.84;4974299;28;1029;-50
2022/05/09 12:55:57;;;;;;;;;;;;;;;25.22;24.49;95473.34;4974536;28;1032;-50
2022/05/09 12:58:30;;;;;;;;;;;;;;;25.09;23.87;95467.06;4974288;28;1051;-50
2022/05/09 13:00:57;;;;;;;;;;;;;;;24.97;23.81;95463.56;4974405;28;1902;-50
2022/05/09 13:03:23;;;;;;;;;;;;;;;24.92;24.02;95458.00;4974178;28;1030;-50
2022/05/09 13:05:49;;;;;;;;;;;;;;;24.92;24.48;95460.72;4974147;28;1014;-50
2022/05/09 13:08:15;;;;;;;;;;;;;;;24.93;23.08;95456.94;4974244;28;1025;-50
2022/05/09 13:10:46;;;;;;;;;;;;;;;25.00;23.49;95460.31;4974354;28;1016;-50
2022/05/09 13:13:21;;;;;;;;;;;;;;;25.00;23.82;95452.13;4974160;28;1005;-50
2022/05/09 13:15:47;;;;;;;;;;;;;;;25.17;25.25;95451.34;4974243;28;934;-50
2022/05/09 13:18:17;;;;;;;;;;;;;;;25.24;25.79;95447.41;4973829;28;1080;-50
2022/05/09 13:20:48;;;;;;;;;;;;;;;25.42;25.42;95448.25;4973810;28;1910;-50
2022/05/09 13:23:14;;;;;;;;;;;;;;;25.47;25.19;95448.34;4974133;28;1006;-50
2022/05/09 13:25:46;;;;;;;;;;;;;;;25.46;24.98;95447.53;4973751;28;1218;-50